createdAt,value
2017-10-28T00:00:30.769Z,10.10
2017-10-28T00:03:00.398Z,10.20
2017-10-28T00:05:28.200Z,10.20
2017-10-28T00:07:55.102Z,10.20
2017-10-28T00:10:23.790Z,10.20
2017-10-28T00:12:51.445Z,10.20
2017-10-28T00:15:20.265Z,10.20
2017-10-28T00:17:47.174Z,10.30
2017-10-28T00:20:14.090Z,10.30
2017-10-28T00:22:40.988Z,10.30
2017-10-28T00:25:07.882Z,10.30
2017-10-28T00:27:34.796Z,10.40
2017-10-28T00:30:01.700Z,10.40
2017-10-28T00:32:28.597Z,10.40
2017-10-28T00:34:56.550Z,10.40
2017-10-28T00:37:23.468Z,10.50
2017-10-28T00:39:52.113Z,10.50
2017-10-28T00:42:19.041Z,10.40
2017-10-28T00:44:45.941Z,10.50
2017-10-28T00:47:12.837Z,10.50
2017-10-28T00:49:39.765Z,10.60
2017-10-28T00:52:06.658Z,10.60
2017-10-28T00:54:35.067Z,10.60
2017-10-28T00:57:02.877Z,10.60
2017-10-28T00:59:30.681Z,10.60
2017-10-28T01:01:57.566Z,10.60
2017-10-28T01:04:24.789Z,10.60
2017-10-28T01:06:52.013Z,10.60
2017-10-28T01:09:18.910Z,10.60
2017-10-28T01:11:47.737Z,10.50
2017-10-28T01:14:15.398Z,10.50
2017-10-28T01:16:42.316Z,10.50
2017-10-28T01:19:09.209Z,10.50
2017-10-28T01:21:36.110Z,10.50
2017-10-28T01:24:04.506Z,10.50
2017-10-28T01:26:31.404Z,10.50
2017-10-28T01:28:58.292Z,10.50
2017-10-28T01:31:25.194Z,10.50
2017-10-28T01:33:54.331Z,10.50
2017-10-28T01:36:21.402Z,10.50
2017-10-28T01:38:49.057Z,10.50
2017-10-28T01:41:16.721Z,10.50
2017-10-28T01:43:45.089Z,10.50
2017-10-28T01:46:12.750Z,10.60
2017-10-28T01:48:40.423Z,10.60
2017-10-28T01:51:08.981Z,10.60
2017-10-28T01:53:35.896Z,10.60
2017-10-28T01:56:02.790Z,10.70
2017-10-28T01:58:30.458Z,10.70
2017-10-28T02:05:41.705Z,10.70
2017-10-28T02:08:10.535Z,10.80
2017-10-28T02:10:39.420Z,10.70
2017-10-28T02:13:06.350Z,10.70
2017-10-28T02:15:33.225Z,10.50
2017-10-28T02:18:00.903Z,10.20
2017-10-28T02:20:27.798Z,10.20
2017-10-28T02:22:54.696Z,10.10
2017-10-28T02:25:21.593Z,10.20
2017-10-28T02:27:48.498Z,10.10
2017-10-28T02:30:15.395Z,10.10
2017-10-28T02:32:42.293Z,10.20
2017-10-28T02:35:09.186Z,10.30
2017-10-28T02:37:36.854Z,10.30
2017-10-28T02:40:04.514Z,10.40
2017-10-28T02:42:32.193Z,10.40
2017-10-28T02:44:59.086Z,10.40
2017-10-28T02:47:25.994Z,10.50
2017-10-28T02:49:52.889Z,10.50
2017-10-28T02:52:19.797Z,10.50
2017-10-28T02:54:46.693Z,10.40
2017-10-28T02:57:14.396Z,10.30
2017-10-28T02:59:41.320Z,10.30
2017-10-28T03:02:08.979Z,10.20
2017-10-28T03:04:35.876Z,10.20
2017-10-28T03:07:02.769Z,10.10
2017-10-28T03:09:29.661Z,10.10
2017-10-28T03:11:56.590Z,10.10
2017-10-28T03:14:24.904Z,10.10
2017-10-28T03:16:52.591Z,10.10
2017-10-28T03:19:19.761Z,10.10
2017-10-28T03:21:46.644Z,10.10
2017-10-28T03:24:15.073Z,10.10
2017-10-28T03:26:42.144Z,10.10
2017-10-28T03:29:09.057Z,10.10
2017-10-28T03:31:36.873Z,10.10
2017-10-28T03:34:03.786Z,10.10
2017-10-28T03:36:30.671Z,10.10
2017-10-28T03:38:57.561Z,10.20
2017-10-28T03:41:24.464Z,10.20
2017-10-28T03:43:51.373Z,10.20
2017-10-28T03:46:19.039Z,10.30
2017-10-28T03:48:46.705Z,10.30
2017-10-28T03:51:14.376Z,10.30
2017-10-28T03:53:42.449Z,10.30
2017-10-28T03:56:09.341Z,10.30
2017-10-28T03:58:36.330Z,10.30
2017-10-28T04:01:03.989Z,10.50
2017-10-28T04:03:31.653Z,10.50
2017-10-28T04:05:59.305Z,10.50
2017-10-28T04:08:26.307Z,10.50
2017-10-28T04:10:53.247Z,10.50
2017-10-28T04:13:20.145Z,10.50
2017-10-28T04:15:47.797Z,10.50
2017-10-28T04:18:15.665Z,10.50
2017-10-28T04:20:43.313Z,10.60
2017-10-28T04:23:10.234Z,10.60
2017-10-28T04:25:37.133Z,10.60
2017-10-28T04:28:04.911Z,10.60
2017-10-28T04:30:31.813Z,10.60
2017-10-28T04:32:58.716Z,10.60
2017-10-28T04:35:25.611Z,10.60
2017-10-28T04:37:53.273Z,10.60
2017-10-28T04:40:20.151Z,10.60
2017-10-28T04:42:47.064Z,10.70
2017-10-28T04:45:13.962Z,10.70
2017-10-28T04:47:40.852Z,10.70
2017-10-28T04:50:09.498Z,10.60
2017-10-28T04:52:36.421Z,10.60
2017-10-28T04:55:04.316Z,10.70
2017-10-28T04:57:31.214Z,10.70
2017-10-28T04:59:58.114Z,10.70
2017-10-28T05:02:26.787Z,10.70
2017-10-28T05:04:53.689Z,10.70
2017-10-28T05:07:20.573Z,10.70
2017-10-28T05:09:47.570Z,10.70
2017-10-28T05:12:14.460Z,10.70
2017-10-28T05:14:41.361Z,10.70
2017-10-28T05:17:11.137Z,10.70
2017-10-28T05:19:38.035Z,10.70
2017-10-28T05:22:04.918Z,10.70
2017-10-28T05:24:31.936Z,10.80
2017-10-28T05:26:58.899Z,10.80
2017-10-28T05:29:26.161Z,10.80
2017-10-28T05:31:53.830Z,10.80
2017-10-28T05:34:20.729Z,10.80
2017-10-28T05:36:47.655Z,10.90
2017-10-28T05:39:15.490Z,10.80
2017-10-28T05:41:43.231Z,10.70
2017-10-28T05:44:10.121Z,10.80
2017-10-28T05:46:37.020Z,10.80
2017-10-28T05:49:03.906Z,10.80
2017-10-28T05:51:30.808Z,10.80
2017-10-28T05:53:57.693Z,10.80
2017-10-28T05:56:24.602Z,10.70
2017-10-28T05:58:51.557Z,10.70
2017-10-28T06:01:19.226Z,10.70
2017-10-28T06:03:46.883Z,10.70
2017-10-28T06:06:14.549Z,10.80
2017-10-28T06:08:42.235Z,10.80
2017-10-28T06:11:09.137Z,10.70
2017-10-28T06:13:38.022Z,10.80
2017-10-28T06:16:05.897Z,10.70
2017-10-28T06:18:33.553Z,10.80
2017-10-28T06:21:00.456Z,10.80
2017-10-28T06:23:27.346Z,10.80
2017-10-28T06:26:01.181Z,10.70
2017-10-28T06:28:30.038Z,10.80
2017-10-28T06:30:56.934Z,10.80
2017-10-28T06:33:23.845Z,10.80
2017-10-28T06:35:51.498Z,10.90
2017-10-28T06:38:19.169Z,10.80
2017-10-28T06:40:46.825Z,10.90
2017-10-28T06:43:13.722Z,10.90
2017-10-28T06:45:40.613Z,10.90
2017-10-28T06:48:08.370Z,11.00
2017-10-28T06:50:35.293Z,11.00
2017-10-28T06:53:02.198Z,11.00
2017-10-28T06:55:29.085Z,11.00
2017-10-28T06:57:55.998Z,11.10
2017-10-28T07:00:22.880Z,11.10
2017-10-28T07:02:49.794Z,11.10
2017-10-28T07:05:16.833Z,11.10
2017-10-28T07:07:43.773Z,11.10
2017-10-28T07:10:10.667Z,11.20
2017-10-28T07:12:38.489Z,11.20
2017-10-28T07:15:06.381Z,11.20
2017-10-28T07:17:35.388Z,11.30
2017-10-28T07:20:03.066Z,11.40
2017-10-28T07:22:30.735Z,11.40
2017-10-28T07:24:57.634Z,11.40
2017-10-28T07:27:24.541Z,11.50
2017-10-28T07:29:52.196Z,11.50
2017-10-28T07:32:19.099Z,11.50
2017-10-28T07:34:46.946Z,11.50
2017-10-28T07:37:13.964Z,11.50
2017-10-28T07:39:40.858Z,11.50
2017-10-28T07:42:09.529Z,11.50
2017-10-28T07:44:36.435Z,11.50
2017-10-28T07:47:04.141Z,11.50
2017-10-28T07:49:31.044Z,11.50
2017-10-28T07:51:57.933Z,11.60
2017-10-28T07:54:25.454Z,11.60
2017-10-28T07:56:53.359Z,11.60
2017-10-28T07:59:20.257Z,11.60
2017-10-28T08:01:47.146Z,11.70
2017-10-28T08:04:15.009Z,11.70
2017-10-28T08:06:42.866Z,11.80
2017-10-28T08:09:09.783Z,11.80
2017-10-28T08:11:36.680Z,11.80
2017-10-28T08:14:04.350Z,11.80
2017-10-28T08:16:31.249Z,11.80
2017-10-28T08:18:58.169Z,11.90
2017-10-28T08:21:25.261Z,11.90
2017-10-28T08:23:52.162Z,11.90
2017-10-28T08:26:19.054Z,12.00
2017-10-28T08:28:46.733Z,12.00
2017-10-28T08:31:14.393Z,12.00
2017-10-28T08:33:42.073Z,12.00
2017-10-28T08:36:08.961Z,12.00
2017-10-28T08:38:35.973Z,12.00
2017-10-28T08:41:02.863Z,12.10
2017-10-28T08:43:29.764Z,12.10
2017-10-28T08:45:56.679Z,12.10
2017-10-28T08:48:23.573Z,12.10
2017-10-28T08:50:52.385Z,12.00
2017-10-28T08:53:19.288Z,12.00
2017-10-28T08:55:46.183Z,12.10
2017-10-28T08:58:13.065Z,12.20
2017-10-28T09:00:39.975Z,12.20
2017-10-28T09:03:07.790Z,12.10
2017-10-28T09:05:35.506Z,12.00
2017-10-28T09:08:03.214Z,11.80
2017-10-28T09:10:30.126Z,11.80
2017-10-28T09:12:57.045Z,11.80
2017-10-28T09:15:23.935Z,11.80
2017-10-28T09:17:50.825Z,11.80
2017-10-28T09:20:18.906Z,11.80
2017-10-28T09:22:47.585Z,11.80
2017-10-28T09:25:14.496Z,11.80
2017-10-28T09:27:41.396Z,11.90
2017-10-28T09:30:09.054Z,12.20
2017-10-28T09:32:36.740Z,12.10
2017-10-28T09:35:03.634Z,12.10
2017-10-28T09:37:30.537Z,12.40
2017-10-28T09:39:57.448Z,12.50
2017-10-28T09:42:25.126Z,12.20
2017-10-28T09:44:52.026Z,12.20
2017-10-28T09:47:18.933Z,12.10
2017-10-28T09:49:45.829Z,12.10
2017-10-28T09:52:13.527Z,12.10
2017-10-28T09:54:40.421Z,12.10
2017-10-28T09:57:07.333Z,12.10
2017-10-28T09:59:35.225Z,12.20
2017-10-28T10:02:02.145Z,12.30
2017-10-28T10:04:29.046Z,12.40
2017-10-28T10:06:56.693Z,12.20
2017-10-28T10:09:24.378Z,12.40
2017-10-28T10:11:51.269Z,12.30
2017-10-28T10:14:18.334Z,12.40
2017-10-28T10:16:45.997Z,12.40
2017-10-28T10:19:12.893Z,12.40
2017-10-28T10:21:39.798Z,12.50
2017-10-28T10:24:07.474Z,12.50
2017-10-28T10:26:35.151Z,12.40
2017-10-28T10:29:02.073Z,12.40
2017-10-28T10:31:31.649Z,12.40
2017-10-28T10:33:58.561Z,12.40
2017-10-28T10:36:25.441Z,12.10
2017-10-28T10:38:52.346Z,12.00
2017-10-28T10:41:19.229Z,11.80
2017-10-28T10:43:47.093Z,11.80
2017-10-28T10:46:13.990Z,11.60
2017-10-28T10:48:40.898Z,11.60
2017-10-28T10:51:09.562Z,11.90
2017-10-28T10:53:37.458Z,11.90
2017-10-28T10:56:05.149Z,12.00
2017-10-28T10:58:32.068Z,12.00
2017-10-28T11:00:59.773Z,12.10
2017-10-28T11:03:26.683Z,12.00
2017-10-28T11:05:53.576Z,12.20
2017-10-28T11:08:20.481Z,12.30
2017-10-28T11:10:47.368Z,12.40
2017-10-28T11:13:15.183Z,12.40
2017-10-28T11:15:42.073Z,12.10
2017-10-28T11:18:09.975Z,12.10
2017-10-28T11:20:37.790Z,12.00
2017-10-28T11:23:06.623Z,11.90
2017-10-28T11:25:34.291Z,11.80
2017-10-28T11:28:01.952Z,11.80
2017-10-28T11:30:29.619Z,11.90
2017-10-28T11:32:57.275Z,11.90
2017-10-28T11:35:24.950Z,12.10
2017-10-28T11:37:51.837Z,12.00
2017-10-28T11:40:20.655Z,12.10
2017-10-28T11:42:47.556Z,12.20
2017-10-28T11:45:14.489Z,12.20
2017-10-28T11:47:41.375Z,12.20
2017-10-28T11:50:08.291Z,12.10
2017-10-28T11:52:35.181Z,12.00
2017-10-28T11:55:10.980Z,12.00
2017-10-28T11:57:37.870Z,12.00
2017-10-28T12:00:04.823Z,11.90
2017-10-28T12:02:31.709Z,11.90
2017-10-28T12:04:59.638Z,11.80
2017-10-28T12:07:29.133Z,11.20
2017-10-28T12:09:56.808Z,11.10
2017-10-28T12:12:24.521Z,10.90
2017-10-28T12:14:51.726Z,10.90
2017-10-28T12:17:20.390Z,10.80
2017-10-28T12:19:47.305Z,10.80
2017-10-28T12:22:14.276Z,10.70
2017-10-28T12:24:41.174Z,10.70
2017-10-28T12:27:08.077Z,10.60
2017-10-28T12:29:36.738Z,10.60
2017-10-28T12:32:03.643Z,10.60
2017-10-28T12:34:30.634Z,10.60
2017-10-28T12:36:57.534Z,10.60
2017-10-28T12:39:25.329Z,10.60
2017-10-28T12:41:52.239Z,10.50
2017-10-28T12:44:19.142Z,10.50
2017-10-28T12:46:46.826Z,10.60
2017-10-28T12:49:13.716Z,10.60
2017-10-28T12:51:40.616Z,10.80
2017-10-28T12:54:07.565Z,10.60
2017-10-28T12:56:35.051Z,10.60
2017-10-28T12:59:03.696Z,10.60
2017-10-28T13:01:31.385Z,10.60
2017-10-28T13:03:59.308Z,10.50
2017-10-28T13:06:26.604Z,10.60
2017-10-28T13:08:54.469Z,10.70
2017-10-28T13:11:21.362Z,10.70
2017-10-28T13:13:48.267Z,10.60
2017-10-28T13:16:15.170Z,10.60
2017-10-28T13:18:42.049Z,10.60
2017-10-28T13:21:08.959Z,10.60
2017-10-28T13:23:35.852Z,10.40
2017-10-28T13:26:03.530Z,10.40
2017-10-28T13:28:30.463Z,10.50
2017-10-28T13:30:57.346Z,10.50
2017-10-28T13:33:24.286Z,10.50
2017-10-28T13:35:51.181Z,10.60
2017-10-28T13:38:18.101Z,10.70
2017-10-28T13:40:45.023Z,10.70
2017-10-28T13:43:13.890Z,10.70
2017-10-28T13:45:40.782Z,10.80
2017-10-28T13:48:07.725Z,10.90
2017-10-28T13:50:35.521Z,10.80
2017-10-28T13:53:03.202Z,10.90
2017-10-28T13:55:30.143Z,10.90
2017-10-28T13:57:57.058Z,11.00
2017-10-28T14:00:24.914Z,11.00
2017-10-28T14:02:51.813Z,11.00
2017-10-28T14:05:18.715Z,11.00
2017-10-28T14:07:45.629Z,11.00
2017-10-28T14:10:12.537Z,11.00
2017-10-28T14:12:39.445Z,11.00
2017-10-28T14:15:06.355Z,10.90
2017-10-28T14:17:33.278Z,10.90
2017-10-28T14:20:00.187Z,10.90
2017-10-28T14:22:27.860Z,11.00
2017-10-28T14:24:57.173Z,11.00
2017-10-28T14:27:24.074Z,11.00
2017-10-28T14:29:50.978Z,11.00
2017-10-28T14:32:17.877Z,11.00
2017-10-28T14:34:45.554Z,11.00
2017-10-28T14:37:12.457Z,11.00
2017-10-28T14:39:39.362Z,11.00
2017-10-28T14:42:09.330Z,11.00
2017-10-28T14:44:36.221Z,11.00
2017-10-28T14:47:04.029Z,11.00
2017-10-28T14:49:31.888Z,11.00
2017-10-28T14:51:58.786Z,11.00
2017-10-28T14:54:25.679Z,11.00
2017-10-28T14:56:52.573Z,11.00
2017-10-28T14:59:19.474Z,11.10
2017-10-28T15:01:46.520Z,11.00
2017-10-28T15:04:14.389Z,11.10
2017-10-28T15:06:41.272Z,11.00
2017-10-28T15:09:08.165Z,11.00
2017-10-28T15:11:35.052Z,11.00
2017-10-28T15:14:02.829Z,11.00
2017-10-28T15:16:29.730Z,11.00
2017-10-28T15:18:57.497Z,11.00
2017-10-28T15:21:24.402Z,11.00
2017-10-28T15:23:52.336Z,11.00
2017-10-28T15:26:20.134Z,11.00
2017-10-28T15:28:47.041Z,10.90
2017-10-28T15:31:13.938Z,10.80
2017-10-28T15:33:40.846Z,10.70
2017-10-28T15:36:09.244Z,10.60
2017-10-28T15:38:36.915Z,10.60
2017-10-28T15:41:06.098Z,10.60
2017-10-28T15:43:33.808Z,10.60
2017-10-28T15:46:00.698Z,10.60
2017-10-28T15:48:27.609Z,10.60
2017-10-28T15:50:54.494Z,10.70
2017-10-28T15:53:22.369Z,10.60
2017-10-28T15:55:50.267Z,10.60
2017-10-28T15:58:17.165Z,10.60
2017-10-28T16:00:44.069Z,10.70
2017-10-28T16:03:10.990Z,10.60
2017-10-28T16:05:37.878Z,10.70
2017-10-28T16:08:04.840Z,10.70
2017-10-28T16:10:31.721Z,10.70
2017-10-28T16:12:58.614Z,10.70
2017-10-28T16:15:27.183Z,10.70
2017-10-28T16:17:54.124Z,10.70
2017-10-28T16:20:24.313Z,10.70
2017-10-28T16:22:52.193Z,10.70
2017-10-28T16:25:20.254Z,10.70
2017-10-28T16:27:47.941Z,10.70
2017-10-28T16:30:16.637Z,10.70
2017-10-28T16:32:43.610Z,10.70
2017-10-28T16:35:10.516Z,10.70
2017-10-28T16:37:38.229Z,10.70
2017-10-28T16:40:05.140Z,10.70
2017-10-28T16:42:32.244Z,10.80
2017-10-28T16:44:59.141Z,10.80
2017-10-28T16:47:31.756Z,10.80
2017-10-28T16:49:58.661Z,10.80
2017-10-28T16:52:25.569Z,10.80
2017-10-28T16:54:52.509Z,10.90
2017-10-28T16:57:19.394Z,10.80
2017-10-28T16:59:49.759Z,10.90
2017-10-28T17:02:17.562Z,10.80
2017-10-28T17:04:45.241Z,10.90
2017-10-28T17:07:12.164Z,10.80
2017-10-28T17:09:39.146Z,10.90
2017-10-28T17:12:06.050Z,10.80
2017-10-28T17:14:33.897Z,10.90
2017-10-28T17:17:00.796Z,10.80
2017-10-28T17:19:28.661Z,10.80
2017-10-28T17:21:57.453Z,10.90
2017-10-28T17:24:25.261Z,10.80
2017-10-28T17:26:55.129Z,10.80
2017-10-28T17:29:24.010Z,10.70
2017-10-28T17:31:52.894Z,10.90
2017-10-28T17:34:19.789Z,10.80
2017-10-28T17:36:48.692Z,10.80
2017-10-28T17:39:15.593Z,10.90
2017-10-28T17:41:43.555Z,10.90
2017-10-28T17:44:11.381Z,10.80
2017-10-28T17:46:40.251Z,10.90
2017-10-28T17:49:08.139Z,10.90
2017-10-28T17:51:36.106Z,10.80
2017-10-28T17:54:03.988Z,10.80
2017-10-28T17:56:32.505Z,10.80
2017-10-28T17:58:59.422Z,10.80
2017-10-28T18:01:26.341Z,10.80
2017-10-28T18:03:54.045Z,10.70
2017-10-28T18:06:21.869Z,10.70
2017-10-28T18:08:48.839Z,10.80
2017-10-28T18:11:15.732Z,10.80
2017-10-28T18:13:43.624Z,10.70
2017-10-28T18:16:10.521Z,10.70
2017-10-28T18:18:38.424Z,10.70
2017-10-28T18:21:05.316Z,10.80
2017-10-28T18:23:32.224Z,10.80
2017-10-28T18:25:59.130Z,10.80
2017-10-28T18:28:26.049Z,10.80
2017-10-28T18:30:52.952Z,10.80
2017-10-28T18:33:20.642Z,10.90
2017-10-28T18:35:47.541Z,10.80
2017-10-28T18:38:14.474Z,10.80
2017-10-28T18:40:41.365Z,10.90
2017-10-28T18:43:09.207Z,10.80
2017-10-28T18:45:37.059Z,10.90
2017-10-28T18:48:03.970Z,10.90
2017-10-28T18:50:30.869Z,10.80
2017-10-28T18:52:59.613Z,10.80
2017-10-28T18:55:26.497Z,10.70
2017-10-28T18:57:55.193Z,10.80
2017-10-28T19:00:23.865Z,10.90
2017-10-28T19:02:50.767Z,10.90
2017-10-28T19:05:18.657Z,10.90
2017-10-28T19:07:45.558Z,10.90
2017-10-28T19:10:17.433Z,11.00
2017-10-28T19:12:45.345Z,11.00
2017-10-28T19:15:13.214Z,10.90
2017-10-28T19:17:42.790Z,11.00
2017-10-28T19:20:09.685Z,11.00
2017-10-28T19:22:37.360Z,11.10
2017-10-28T19:25:05.959Z,11.10
2017-10-28T19:27:32.867Z,11.20
2017-10-28T19:30:01.539Z,11.20
2017-10-28T19:32:28.461Z,11.20
2017-10-28T19:34:55.371Z,11.20
2017-10-28T19:37:24.290Z,11.20
2017-10-28T19:39:51.229Z,11.30
2017-10-28T19:42:18.129Z,11.30
2017-10-28T19:44:46.798Z,11.00
2017-10-28T19:47:14.473Z,11.00
2017-10-28T19:49:42.309Z,11.00
2017-10-28T19:52:11.218Z,10.90
2017-10-28T19:54:44.758Z,10.80
2017-10-28T19:57:11.661Z,10.90
2017-10-28T19:59:39.331Z,10.90
2017-10-28T20:02:07.989Z,10.90
2017-10-28T20:04:35.858Z,10.90
2017-10-28T20:07:02.793Z,11.00
2017-10-28T20:09:29.681Z,11.00
2017-10-28T20:11:57.546Z,11.00
2017-10-28T20:14:26.661Z,11.00
2017-10-28T20:16:54.573Z,11.00
2017-10-28T20:19:25.512Z,11.10
2017-10-28T20:21:52.433Z,11.20
2017-10-28T20:24:19.321Z,11.20
2017-10-28T20:26:48.147Z,11.30
2017-10-28T20:29:15.072Z,11.30
2017-10-28T20:31:42.004Z,11.30
2017-10-28T20:34:09.692Z,11.20
2017-10-28T20:36:36.623Z,11.20
2017-10-28T20:39:15.087Z,11.20
2017-10-28T20:41:46.982Z,11.20
2017-10-28T20:44:15.644Z,11.30
2017-10-28T20:46:42.569Z,11.30
2017-10-28T20:49:09.456Z,11.30
2017-10-28T20:51:38.125Z,11.40
2017-10-28T20:54:06.799Z,11.30
2017-10-28T20:56:33.713Z,11.40
2017-10-28T20:59:04.573Z,11.30
2017-10-28T21:01:31.508Z,11.40
2017-10-28T21:03:58.410Z,11.40
2017-10-28T21:06:25.984Z,11.60
2017-10-28T21:08:52.933Z,11.40
2017-10-28T21:11:20.890Z,11.30
2017-10-28T21:13:48.725Z,11.20
2017-10-28T21:16:18.305Z,11.20
2017-10-28T21:18:45.207Z,11.20
2017-10-28T21:21:12.094Z,11.20
2017-10-28T21:23:39.009Z,11.20
2017-10-28T21:26:06.802Z,11.10
2017-10-28T21:28:33.723Z,11.20
2017-10-28T21:31:00.622Z,11.20
2017-10-28T21:33:29.311Z,11.30
2017-10-28T21:35:56.981Z,11.30
2017-10-28T21:38:23.921Z,11.30
2017-10-28T21:40:50.853Z,11.40
2017-10-28T21:43:18.525Z,11.50
2017-10-28T21:45:47.377Z,11.50
2017-10-28T21:48:17.210Z,11.40
2017-10-28T21:50:44.886Z,11.50
2017-10-28T21:53:12.556Z,11.60
2017-10-28T21:55:39.465Z,11.60
2017-10-28T21:58:06.378Z,11.60
2017-10-28T22:00:34.283Z,11.60
2017-10-28T22:03:01.170Z,11.60
2017-10-28T22:05:28.081Z,11.60
2017-10-28T22:08:00.626Z,11.70
2017-10-28T22:10:28.303Z,11.70
2017-10-28T22:12:55.214Z,11.70
2017-10-28T22:15:22.109Z,11.80
2017-10-28T22:17:49.764Z,11.80
2017-10-28T22:20:17.487Z,11.90
2017-10-28T22:22:44.426Z,11.90
2017-10-28T22:25:12.310Z,12.00
2017-10-28T22:27:39.237Z,12.00
2017-10-28T22:30:07.145Z,12.00
2017-10-28T22:32:34.805Z,11.60
2017-10-28T22:35:01.709Z,11.60
2017-10-28T22:37:32.158Z,11.50
2017-10-28T22:40:00.038Z,11.50
2017-10-28T22:42:26.925Z,11.40
2017-10-28T22:44:54.746Z,11.30
2017-10-28T22:47:21.636Z,11.30
2017-10-28T22:49:49.493Z,11.30
2017-10-28T22:52:16.393Z,11.30
2017-10-28T22:54:43.293Z,11.30
2017-10-28T22:57:10.216Z,11.20
2017-10-28T22:59:37.114Z,11.20
2017-10-28T23:02:04.002Z,11.20
2017-10-28T23:04:34.026Z,11.20
2017-10-28T23:07:00.917Z,11.20
2017-10-28T23:09:27.817Z,11.20
2017-10-28T23:11:55.651Z,11.20
2017-10-28T23:14:22.548Z,11.10
2017-10-28T23:16:49.459Z,10.90
2017-10-28T23:19:16.357Z,10.80
2017-10-28T23:21:43.249Z,10.70
2017-10-28T23:24:10.149Z,10.70
2017-10-28T23:26:37.040Z,10.70
2017-10-28T23:29:09.280Z,10.60
2017-10-28T23:31:36.162Z,10.50
2017-10-28T23:34:03.066Z,10.70
2017-10-28T23:36:29.957Z,10.70
2017-10-28T23:38:56.861Z,10.80
2017-10-28T23:41:24.697Z,10.70
2017-10-28T23:43:51.609Z,10.70
2017-10-28T23:46:18.498Z,10.50
2017-10-28T23:48:45.396Z,10.50
2017-10-28T23:51:12.305Z,10.60
2017-10-28T23:53:39.965Z,10.80
2017-10-28T23:56:07.626Z,10.90
2017-10-28T23:58:35.281Z,10.70
